Terminal Aerodrome Forecast
Issued by NWS

Home | Current Version | Previous Version | Text Only | Print | Product List | Glossary On
Versions: 1 2 3 4 5 6 7 8 9 10 11 12 13 14 15 16 17 18 19 20 21 22 23
000
FTUS41 KCAR 280228 AAA
TAFBHB
TAF AMD
KBHB 280228Z 2802/2824 18002KT 1/2SM FG OVC002
     FM281200 VRB03KT 6SM BR BKN005
     FM281500 VRB03KT P6SM VCSH SCT015 BKN060
     FM281700 27004KT P6SM VCTS BKN060CB
      AMD LTD TO CLD VIS AND WIND=

USA.gov is the U.S. government's official web portal to all federal, state and local government web resources and services.